logo
Rechercher aéroport 
image banner adimage banner adimage banner ad
image banner ad

LF97103 - Sainte Rose

Situé à Sainte-Rose, Guadeloupe

ICAO - , IATA -

Données fournies par Airmate  

Information générale

Coordonnées: N16°20'13" W61°42'8"
Élévation : 16 feet MSL.
 
Voir autres Aéroports à (unassigned)

Données opérationnelles

Special qualification required
Heure actuelle UTC:
Heure actuelle locale:
Météo à : TFFR - Pointe A Pitre Le Raizet ( 20 km )
METAR: TFFR 051030Z AUTO 25002KT CAVOK 20/19 Q1015 BECMG 08012KT
TAF: TAF TFFR 050400Z 0506/0606 VRB03KT 9999 SCT025 BECMG 0511/0513 08012KT
Voir NOTAMs / SUP AIP / TFR affectant cet aéroport [VIEW]
Fréquences de communication: [VIEW]

Pistes:

Coordonnées de l'aéroport

Adresse: Sainte-Rose Guadeloupe

Vue satellite de LF97103